sensor_id;sensor_type;location;lat;lon;timestamp;P1;durP1;ratioP1;P2;durP2;ratioP2
19788;SDS011;10054;59.332;18.244;2022-11-20T00:01:37;1.50;;;1.40;;
19788;SDS011;10054;59.332;18.244;2022-11-20T00:04:06;1.80;;;1.70;;
19788;SDS011;10054;59.332;18.244;2022-11-20T00:06:36;1.77;;;1.30;;
19788;SDS011;10054;59.332;18.244;2022-11-20T00:09:05;1.30;;;1.20;;
19788;SDS011;10054;59.332;18.244;2022-11-20T00:11:34;1.00;;;1.00;;
19788;SDS011;10054;59.332;18.244;2022-11-20T00:14:02;2.23;;;1.20;;
19788;SDS011;10054;59.332;18.244;2022-11-20T00:16:31;1.67;;;1.40;;
19788;SDS011;10054;59.332;18.244;2022-11-20T00:19:00;2.37;;;1.40;;
19788;SDS011;10054;59.332;18.244;2022-11-20T00:21:29;1.97;;;1.50;;
19788;SDS011;10054;59.332;18.244;2022-11-20T00:23:59;1.50;;;1.40;;
19788;SDS011;10054;59.332;18.244;2022-11-20T00:26:28;2.90;;;1.70;;
19788;SDS011;10054;59.332;18.244;2022-11-20T00:28:58;2.60;;;1.67;;
19788;SDS011;10054;59.332;18.244;2022-11-20T00:31:29;2.03;;;1.80;;
19788;SDS011;10054;59.332;18.244;2022-11-20T00:33:59;2.70;;;1.47;;
19788;SDS011;10054;59.332;18.244;2022-11-20T00:36:29;2.13;;;1.70;;
19788;SDS011;10054;59.332;18.244;2022-11-20T00:39:00;2.43;;;1.53;;
19788;SDS011;10054;59.332;18.244;2022-11-20T00:41:29;1.67;;;1.57;;
19788;SDS011;10054;59.332;18.244;2022-11-20T00:43:58;1.83;;;1.70;;
19788;SDS011;10054;59.332;18.244;2022-11-20T00:46:27;2.03;;;1.60;;
19788;SDS011;10054;59.332;18.244;2022-11-20T00:48:56;1.30;;;1.20;;
19788;SDS011;10054;59.332;18.244;2022-11-20T00:51:26;1.30;;;1.20;;
19788;SDS011;10054;59.332;18.244;2022-11-20T00:53:56;1.43;;;1.33;;
19788;SDS011;10054;59.332;18.244;2022-11-20T00:56:26;1.30;;;1.20;;
19788;SDS011;10054;59.332;18.244;2022-11-20T00:58:55;3.40;;;1.33;;
19788;SDS011;10054;59.332;18.244;2022-11-20T01:01:25;2.23;;;1.40;;
19788;SDS011;10054;59.332;18.244;2022-11-20T01:03:57;2.13;;;1.17;;
19788;SDS011;10054;59.332;18.244;2022-11-20T01:06:33;1.70;;;1.20;;
19788;SDS011;10054;59.332;18.244;2022-11-20T01:09:00;1.50;;;1.40;;
19788;SDS011;10054;59.332;18.244;2022-11-20T01:11:31;1.47;;;1.37;;
19788;SDS011;10054;59.332;18.244;2022-11-20T01:14:03;1.77;;;1.60;;
19788;SDS011;10054;59.332;18.244;2022-11-20T01:16:34;1.73;;;1.50;;
19788;SDS011;10054;59.332;18.244;2022-11-20T01:19:09;3.50;;;1.40;;
19788;SDS011;10054;59.332;18.244;2022-11-20T01:21:39;2.80;;;1.50;;
19788;SDS011;10054;59.332;18.244;2022-11-20T01:24:13;1.60;;;1.47;;
19788;SDS011;10054;59.332;18.244;2022-11-20T01:26:44;1.40;;;1.30;;
19788;SDS011;10054;59.332;18.244;2022-11-20T01:29:16;1.87;;;1.70;;
19788;SDS011;10054;59.332;18.244;2022-11-20T01:31:46;4.30;;;1.80;;
19788;SDS011;10054;59.332;18.244;2022-11-20T01:34:21;2.90;;;1.80;;
19788;SDS011;10054;59.332;18.244;2022-11-20T01:36:46;2.47;;;1.70;;
19788;SDS011;10054;59.332;18.244;2022-11-20T01:39:17;3.70;;;1.80;;
19788;SDS011;10054;59.332;18.244;2022-11-20T01:41:51;2.57;;;1.80;;
19788;SDS011;10054;59.332;18.244;2022-11-20T01:45:42;2.57;;;1.80;;
19788;SDS011;10054;59.332;18.244;2022-11-20T01:47:33;2.00;;;1.67;;
19788;SDS011;10054;59.332;18.244;2022-11-20T01:50:26;2.50;;;1.70;;
19788;SDS011;10054;59.332;18.244;2022-11-20T01:52:51;2.00;;;1.90;;
19788;SDS011;10054;59.332;18.244;2022-11-20T01:55:22;2.90;;;1.73;;
19788;SDS011;10054;59.332;18.244;2022-11-20T01:57:53;2.20;;;1.87;;
19788;SDS011;10054;59.332;18.244;2022-11-20T02:00:22;1.47;;;1.37;;
19788;SDS011;10054;59.332;18.244;2022-11-20T02:02:52;1.97;;;1.50;;
19788;SDS011;10054;59.332;18.244;2022-11-20T02:05:25;1.60;;;1.50;;
19788;SDS011;10054;59.332;18.244;2022-11-20T02:07:55;1.67;;;1.57;;
19788;SDS011;10054;59.332;18.244;2022-11-20T02:10:26;1.70;;;1.60;;
19788;SDS011;10054;59.332;18.244;2022-11-20T02:12:55;3.57;;;1.60;;
19788;SDS011;10054;59.332;18.244;2022-11-20T02:15:43;1.80;;;1.60;;
19788;SDS011;10054;59.332;18.244;2022-11-20T02:18:13;3.97;;;1.53;;
19788;SDS011;10054;59.332;18.244;2022-11-20T02:20:45;1.53;;;1.23;;
19788;SDS011;10054;59.332;18.244;2022-11-20T02:23:17;2.53;;;1.50;;
19788;SDS011;10054;59.332;18.244;2022-11-20T02:25:51;1.60;;;1.50;;
19788;SDS011;10054;59.332;18.244;2022-11-20T02:28:22;1.57;;;1.47;;
19788;SDS011;10054;59.332;18.244;2022-11-20T02:30:52;1.50;;;1.30;;
19788;SDS011;10054;59.332;18.244;2022-11-20T02:33:21;2.47;;;1.37;;
19788;SDS011;10054;59.332;18.244;2022-11-20T02:35:49;3.13;;;1.40;;
19788;SDS011;10054;59.332;18.244;2022-11-20T02:38:19;2.80;;;1.60;;
19788;SDS011;10054;59.332;18.244;2022-11-20T02:40:49;1.57;;;1.33;;
19788;SDS011;10054;59.332;18.244;2022-11-20T02:43:18;1.50;;;1.40;;
19788;SDS011;10054;59.332;18.244;2022-11-20T02:45:47;1.50;;;1.40;;
19788;SDS011;10054;59.332;18.244;2022-11-20T02:48:16;1.20;;;1.10;;
19788;SDS011;10054;59.332;18.244;2022-11-20T02:50:45;2.40;;;1.40;;
19788;SDS011;10054;59.332;18.244;2022-11-20T02:53:14;1.47;;;1.37;;
19788;SDS011;10054;59.332;18.244;2022-11-20T02:55:42;1.47;;;1.30;;
19788;SDS011;10054;59.332;18.244;2022-11-20T02:58:11;2.13;;;1.43;;
19788;SDS011;10054;59.332;18.244;2022-11-20T03:00:41;1.90;;;1.43;;
19788;SDS011;10054;59.332;18.244;2022-11-20T03:03:10;1.40;;;1.30;;
19788;SDS011;10054;59.332;18.244;2022-11-20T03:05:39;1.30;;;1.20;;
19788;SDS011;10054;59.332;18.244;2022-11-20T03:08:08;1.50;;;1.40;;
19788;SDS011;10054;59.332;18.244;2022-11-20T03:10:37;1.50;;;1.40;;
19788;SDS011;10054;59.332;18.244;2022-11-20T03:13:06;1.10;;;1.00;;
19788;SDS011;10054;59.332;18.244;2022-11-20T03:15:35;3.00;;;1.40;;
19788;SDS011;10054;59.332;18.244;2022-11-20T03:18:05;1.30;;;1.20;;
19788;SDS011;10054;59.332;18.244;2022-11-20T03:20:33;1.40;;;1.30;;
19788;SDS011;10054;59.332;18.244;2022-11-20T03:23:02;1.73;;;1.33;;
19788;SDS011;10054;59.332;18.244;2022-11-20T03:25:31;2.13;;;1.30;;
19788;SDS011;10054;59.332;18.244;2022-11-20T03:28:00;1.53;;;1.17;;
19788;SDS011;10054;59.332;18.244;2022-11-20T03:30:29;2.23;;;1.20;;
19788;SDS011;10054;59.332;18.244;2022-11-20T03:32:58;1.60;;;1.50;;
19788;SDS011;10054;59.332;18.244;2022-11-20T03:35:27;1.90;;;1.10;;
19788;SDS011;10054;59.332;18.244;2022-11-20T03:37:57;1.30;;;1.20;;
19788;SDS011;10054;59.332;18.244;2022-11-20T03:40:26;1.73;;;1.33;;
19788;SDS011;10054;59.332;18.244;2022-11-20T03:42:55;2.00;;;1.40;;
19788;SDS011;10054;59.332;18.244;2022-11-20T03:45:23;2.43;;;1.40;;
19788;SDS011;10054;59.332;18.244;2022-11-20T03:47:52;1.63;;;1.40;;
19788;SDS011;10054;59.332;18.244;2022-11-20T03:50:21;1.77;;;1.33;;
19788;SDS011;10054;59.332;18.244;2022-11-20T03:52:50;1.53;;;1.30;;
19788;SDS011;10054;59.332;18.244;2022-11-20T03:55:19;1.40;;;1.30;;
19788;SDS011;10054;59.332;18.244;2022-11-20T03:57:48;1.50;;;1.40;;
19788;SDS011;10054;59.332;18.244;2022-11-20T04:00:17;1.90;;;1.47;;
19788;SDS011;10054;59.332;18.244;2022-11-20T04:02:46;1.40;;;1.30;;
19788;SDS011;10054;59.332;18.244;2022-11-20T04:05:14;3.33;;;1.20;;
19788;SDS011;10054;59.332;18.244;2022-11-20T04:07:44;1.43;;;1.30;;
19788;SDS011;10054;59.332;18.244;2022-11-20T04:10:12;2.80;;;1.30;;
19788;SDS011;10054;59.332;18.244;2022-11-20T04:12:42;1.30;;;1.20;;
19788;SDS011;10054;59.332;18.244;2022-11-20T04:15:11;1.27;;;1.17;;
19788;SDS011;10054;59.332;18.244;2022-11-20T04:17:39;0.97;;;0.90;;
19788;SDS011;10054;59.332;18.244;2022-11-20T04:20:08;1.53;;;1.30;;
19788;SDS011;10054;59.332;18.244;2022-11-20T04:22:38;1.40;;;1.30;;
19788;SDS011;10054;59.332;18.244;2022-11-20T04:25:08;1.30;;;1.20;;
19788;SDS011;10054;59.332;18.244;2022-11-20T04:27:37;1.20;;;1.10;;
19788;SDS011;10054;59.332;18.244;2022-11-20T04:30:06;1.23;;;1.13;;
19788;SDS011;10054;59.332;18.244;2022-11-20T04:32:35;1.57;;;1.33;;
19788;SDS011;10054;59.332;18.244;2022-11-20T04:35:04;2.13;;;1.40;;
19788;SDS011;10054;59.332;18.244;2022-11-20T04:37:33;1.13;;;1.03;;
19788;SDS011;10054;59.332;18.244;2022-11-20T04:40:02;1.20;;;1.10;;
19788;SDS011;10054;59.332;18.244;2022-11-20T04:42:32;1.10;;;1.00;;
19788;SDS011;10054;59.332;18.244;2022-11-20T04:45:00;1.30;;;1.10;;
19788;SDS011;10054;59.332;18.244;2022-11-20T04:47:29;1.27;;;1.10;;
19788;SDS011;10054;59.332;18.244;2022-11-20T04:49:58;1.40;;;1.27;;
19788;SDS011;10054;59.332;18.244;2022-11-20T04:52:27;1.30;;;1.20;;
19788;SDS011;10054;59.332;18.244;2022-11-20T04:54:56;1.00;;;1.00;;
19788;SDS011;10054;59.332;18.244;2022-11-20T04:57:25;1.67;;;0.90;;
19788;SDS011;10054;59.332;18.244;2022-11-20T04:59:54;1.57;;;1.47;;
19788;SDS011;10054;59.332;18.244;2022-11-20T05:02:22;1.20;;;1.10;;
19788;SDS011;10054;59.332;18.244;2022-11-20T05:04:51;1.30;;;1.10;;
19788;SDS011;10054;59.332;18.244;2022-11-20T05:07:20;1.93;;;1.23;;
19788;SDS011;10054;59.332;18.244;2022-11-20T05:09:49;2.33;;;1.00;;
19788;SDS011;10054;59.332;18.244;2022-11-20T05:12:17;1.23;;;1.00;;
19788;SDS011;10054;59.332;18.244;2022-11-20T05:14:46;1.17;;;1.03;;
19788;SDS011;10054;59.332;18.244;2022-11-20T05:17:15;1.30;;;1.00;;
19788;SDS011;10054;59.332;18.244;2022-11-20T05:19:44;1.00;;;1.00;;
19788;SDS011;10054;59.332;18.244;2022-11-20T05:22:13;2.53;;;1.40;;
19788;SDS011;10054;59.332;18.244;2022-11-20T05:24:41;1.67;;;0.93;;
19788;SDS011;10054;59.332;18.244;2022-11-20T05:27:10;1.10;;;1.00;;
19788;SDS011;10054;59.332;18.244;2022-11-20T05:29:39;0.90;;;0.90;;
19788;SDS011;10054;59.332;18.244;2022-11-20T05:32:08;0.90;;;0.90;;
19788;SDS011;10054;59.332;18.244;2022-11-20T05:34:37;1.40;;;1.20;;
19788;SDS011;10054;59.332;18.244;2022-11-20T05:37:06;1.97;;;1.17;;
19788;SDS011;10054;59.332;18.244;2022-11-20T05:39:34;1.17;;;1.07;;
19788;SDS011;10054;59.332;18.244;2022-11-20T05:42:03;2.03;;;1.30;;
19788;SDS011;10054;59.332;18.244;2022-11-20T05:44:50;2.50;;;1.20;;
19788;SDS011;10054;59.332;18.244;2022-11-20T05:47:19;1.17;;;1.10;;
19788;SDS011;10054;59.332;18.244;2022-11-20T05:49:48;1.40;;;1.00;;
19788;SDS011;10054;59.332;18.244;2022-11-20T05:52:17;1.13;;;1.03;;
19788;SDS011;10054;59.332;18.244;2022-11-20T05:54:46;1.70;;;1.30;;
19788;SDS011;10054;59.332;18.244;2022-11-20T05:57:15;0.90;;;0.90;;
19788;SDS011;10054;59.332;18.244;2022-11-20T05:59:44;0.90;;;0.90;;
19788;SDS011;10054;59.332;18.244;2022-11-20T06:02:12;1.10;;;1.00;;
19788;SDS011;10054;59.332;18.244;2022-11-20T06:04:41;1.00;;;1.00;;
19788;SDS011;10054;59.332;18.244;2022-11-20T06:07:10;1.33;;;1.23;;
19788;SDS011;10054;59.332;18.244;2022-11-20T06:09:38;0.80;;;0.80;;
19788;SDS011;10054;59.332;18.244;2022-11-20T06:12:08;1.10;;;1.00;;
19788;SDS011;10054;59.332;18.244;2022-11-20T06:14:36;1.00;;;1.00;;
19788;SDS011;10054;59.332;18.244;2022-11-20T06:17:06;1.43;;;0.90;;
19788;SDS011;10054;59.332;18.244;2022-11-20T06:19:36;1.13;;;0.90;;
19788;SDS011;10054;59.332;18.244;2022-11-20T06:22:05;2.03;;;1.10;;
19788;SDS011;10054;59.332;18.244;2022-11-20T06:24:34;0.90;;;0.90;;
19788;SDS011;10054;59.332;18.244;2022-11-20T06:27:03;1.80;;;1.13;;
19788;SDS011;10054;59.332;18.244;2022-11-20T06:29:32;1.43;;;1.17;;
19788;SDS011;10054;59.332;18.244;2022-11-20T06:32:01;1.10;;;1.00;;
19788;SDS011;10054;59.332;18.244;2022-11-20T06:34:30;0.90;;;0.90;;
19788;SDS011;10054;59.332;18.244;2022-11-20T06:36:59;1.20;;;1.10;;
19788;SDS011;10054;59.332;18.244;2022-11-20T06:39:27;1.40;;;1.10;;
19788;SDS011;10054;59.332;18.244;2022-11-20T06:41:56;4.13;;;1.20;;
19788;SDS011;10054;59.332;18.244;2022-11-20T06:44:25;1.30;;;1.20;;
19788;SDS011;10054;59.332;18.244;2022-11-20T06:46:54;1.13;;;0.97;;
19788;SDS011;10054;59.332;18.244;2022-11-20T06:49:23;1.30;;;1.20;;
19788;SDS011;10054;59.332;18.244;2022-11-20T06:51:52;0.83;;;0.83;;
19788;SDS011;10054;59.332;18.244;2022-11-20T06:54:21;2.37;;;1.00;;
19788;SDS011;10054;59.332;18.244;2022-11-20T06:56:50;2.73;;;1.00;;
19788;SDS011;10054;59.332;18.244;2022-11-20T06:59:19;2.17;;;1.10;;
19788;SDS011;10054;59.332;18.244;2022-11-20T07:01:49;0.90;;;0.90;;
19788;SDS011;10054;59.332;18.244;2022-11-20T07:04:18;1.20;;;1.07;;
19788;SDS011;10054;59.332;18.244;2022-11-20T07:06:46;0.80;;;0.80;;
19788;SDS011;10054;59.332;18.244;2022-11-20T07:09:16;2.67;;;1.10;;
19788;SDS011;10054;59.332;18.244;2022-11-20T07:11:45;1.40;;;1.30;;
19788;SDS011;10054;59.332;18.244;2022-11-20T07:14:14;1.03;;;1.00;;
19788;SDS011;10054;59.332;18.244;2022-11-20T07:16:42;1.10;;;1.00;;
19788;SDS011;10054;59.332;18.244;2022-11-20T07:19:12;1.27;;;1.00;;
19788;SDS011;10054;59.332;18.244;2022-11-20T07:21:40;1.17;;;1.00;;
19788;SDS011;10054;59.332;18.244;2022-11-20T07:24:09;1.50;;;0.90;;
19788;SDS011;10054;59.332;18.244;2022-11-20T07:26:38;0.80;;;0.80;;
19788;SDS011;10054;59.332;18.244;2022-11-20T07:29:07;1.00;;;1.00;;
19788;SDS011;10054;59.332;18.244;2022-11-20T07:31:36;0.70;;;0.70;;
19788;SDS011;10054;59.332;18.244;2022-11-20T07:34:04;0.83;;;0.83;;
19788;SDS011;10054;59.332;18.244;2022-11-20T07:36:33;0.77;;;0.77;;
19788;SDS011;10054;59.332;18.244;2022-11-20T07:39:02;0.40;;;0.40;;
19788;SDS011;10054;59.332;18.244;2022-11-20T07:41:31;0.73;;;0.73;;
19788;SDS011;10054;59.332;18.244;2022-11-20T07:44:00;0.60;;;0.60;;
19788;SDS011;10054;59.332;18.244;2022-11-20T07:46:29;0.53;;;0.53;;
19788;SDS011;10054;59.332;18.244;2022-11-20T07:48:58;0.80;;;0.67;;
19788;SDS011;10054;59.332;18.244;2022-11-20T07:51:27;0.40;;;0.40;;
19788;SDS011;10054;59.332;18.244;2022-11-20T07:53:56;1.50;;;0.70;;
19788;SDS011;10054;59.332;18.244;2022-11-20T07:56:25;0.50;;;0.50;;
19788;SDS011;10054;59.332;18.244;2022-11-20T07:58:54;0.93;;;0.60;;
19788;SDS011;10054;59.332;18.244;2022-11-20T08:01:22;0.60;;;0.60;;
19788;SDS011;10054;59.332;18.244;2022-11-20T08:03:51;0.70;;;0.70;;
19788;SDS011;10054;59.332;18.244;2022-11-20T08:06:20;0.63;;;0.63;;
19788;SDS011;10054;59.332;18.244;2022-11-20T08:08:50;0.60;;;0.57;;
19788;SDS011;10054;59.332;18.244;2022-11-20T08:11:19;0.70;;;0.70;;
19788;SDS011;10054;59.332;18.244;2022-11-20T08:14:06;0.80;;;0.70;;
19788;SDS011;10054;59.332;18.244;2022-11-20T08:16:47;0.60;;;0.60;;
19788;SDS011;10054;59.332;18.244;2022-11-20T08:19:13;0.50;;;0.50;;
19788;SDS011;10054;59.332;18.244;2022-11-20T08:21:44;0.60;;;0.60;;
19788;SDS011;10054;59.332;18.244;2022-11-20T08:24:13;0.67;;;0.67;;
19788;SDS011;10054;59.332;18.244;2022-11-20T08:26:42;1.07;;;0.60;;
19788;SDS011;10054;59.332;18.244;2022-11-20T08:29:11;0.63;;;0.63;;
19788;SDS011;10054;59.332;18.244;2022-11-20T08:31:40;0.90;;;0.70;;
19788;SDS011;10054;59.332;18.244;2022-11-20T08:34:08;0.73;;;0.73;;
19788;SDS011;10054;59.332;18.244;2022-11-20T08:36:37;0.50;;;0.50;;
19788;SDS011;10054;59.332;18.244;2022-11-20T08:39:06;0.57;;;0.57;;
19788;SDS011;10054;59.332;18.244;2022-11-20T08:41:34;0.50;;;0.50;;
19788;SDS011;10054;59.332;18.244;2022-11-20T08:44:04;0.70;;;0.70;;
19788;SDS011;10054;59.332;18.244;2022-11-20T08:46:34;0.67;;;0.67;;
19788;SDS011;10054;59.332;18.244;2022-11-20T08:49:05;0.37;;;0.37;;
19788;SDS011;10054;59.332;18.244;2022-11-20T08:51:35;0.50;;;0.50;;
19788;SDS011;10054;59.332;18.244;2022-11-20T08:54:04;0.60;;;0.40;;
19788;SDS011;10054;59.332;18.244;2022-11-20T08:56:34;0.90;;;0.60;;
19788;SDS011;10054;59.332;18.244;2022-11-20T08:59:03;0.60;;;0.60;;
19788;SDS011;10054;59.332;18.244;2022-11-20T09:01:32;0.60;;;0.60;;
19788;SDS011;10054;59.332;18.244;2022-11-20T09:04:01;0.70;;;0.70;;
19788;SDS011;10054;59.332;18.244;2022-11-20T09:06:31;1.60;;;0.70;;
19788;SDS011;10054;59.332;18.244;2022-11-20T09:09:00;0.60;;;0.60;;
19788;SDS011;10054;59.332;18.244;2022-11-20T09:11:28;0.70;;;0.70;;
19788;SDS011;10054;59.332;18.244;2022-11-20T09:13:57;1.10;;;0.80;;
19788;SDS011;10054;59.332;18.244;2022-11-20T09:16:26;0.70;;;0.70;;
19788;SDS011;10054;59.332;18.244;2022-11-20T09:18:55;1.27;;;0.70;;
19788;SDS011;10054;59.332;18.244;2022-11-20T09:21:24;0.80;;;0.80;;
19788;SDS011;10054;59.332;18.244;2022-11-20T09:23:53;0.57;;;0.57;;
19788;SDS011;10054;59.332;18.244;2022-11-20T09:26:22;1.33;;;0.80;;
19788;SDS011;10054;59.332;18.244;2022-11-20T09:28:51;1.20;;;0.87;;
19788;SDS011;10054;59.332;18.244;2022-11-20T09:31:22;0.83;;;0.57;;
19788;SDS011;10054;59.332;18.244;2022-11-20T09:33:51;2.13;;;0.60;;
19788;SDS011;10054;59.332;18.244;2022-11-20T09:36:20;1.23;;;0.70;;
19788;SDS011;10054;59.332;18.244;2022-11-20T09:38:48;1.13;;;0.80;;
19788;SDS011;10054;59.332;18.244;2022-11-20T09:44:11;0.80;;;0.80;;
19788;SDS011;10054;59.332;18.244;2022-11-20T09:49:51;1.23;;;0.80;;
19788;SDS011;10054;59.332;18.244;2022-11-20T09:52:58;1.13;;;0.67;;
19788;SDS011;10054;59.332;18.244;2022-11-20T09:55:15;1.10;;;0.70;;
19788;SDS011;10054;59.332;18.244;2022-11-20T09:57:46;0.70;;;0.70;;
19788;SDS011;10054;59.332;18.244;2022-11-20T10:00:16;0.57;;;0.57;;
19788;SDS011;10054;59.332;18.244;2022-11-20T10:03:01;0.83;;;0.80;;
19788;SDS011;10054;59.332;18.244;2022-11-20T10:05:37;0.73;;;0.70;;
19788;SDS011;10054;59.332;18.244;2022-11-20T10:08:17;0.60;;;0.60;;
19788;SDS011;10054;59.332;18.244;2022-11-20T10:24:44;1.27;;;0.57;;
19788;SDS011;10054;59.332;18.244;2022-11-20T10:32:41;0.43;;;0.43;;
19788;SDS011;10054;59.332;18.244;2022-11-20T10:35:22;0.60;;;0.60;;
19788;SDS011;10054;59.332;18.244;2022-11-20T10:38:00;1.50;;;0.70;;
19788;SDS011;10054;59.332;18.244;2022-11-20T10:40:44;0.60;;;0.60;;
19788;SDS011;10054;59.332;18.244;2022-11-20T10:48:24;0.60;;;0.60;;
19788;SDS011;10054;59.332;18.244;2022-11-20T10:56:39;0.73;;;0.73;;
19788;SDS011;10054;59.332;18.244;2022-11-20T11:04:51;1.67;;;0.90;;
19788;SDS011;10054;59.332;18.244;2022-11-20T11:10:28;0.70;;;0.70;;
19788;SDS011;10054;59.332;18.244;2022-11-20T11:12:49;1.27;;;1.07;;
19788;SDS011;10054;59.332;18.244;2022-11-20T11:15:35;0.80;;;0.80;;
19788;SDS011;10054;59.332;18.244;2022-11-20T11:17:55;0.87;;;0.87;;
19788;SDS011;10054;59.332;18.244;2022-11-20T11:20:25;0.93;;;0.90;;
19788;SDS011;10054;59.332;18.244;2022-11-20T11:22:55;0.90;;;0.90;;
19788;SDS011;10054;59.332;18.244;2022-11-20T11:25:32;1.80;;;0.93;;
19788;SDS011;10054;59.332;18.244;2022-11-20T11:28:03;1.00;;;1.00;;
19788;SDS011;10054;59.332;18.244;2022-11-20T11:30:41;0.87;;;0.80;;
19788;SDS011;10054;59.332;18.244;2022-11-20T11:33:17;1.30;;;0.70;;
19788;SDS011;10054;59.332;18.244;2022-11-20T11:35:59;1.73;;;0.70;;
19788;SDS011;10054;59.332;18.244;2022-11-20T11:38:40;2.40;;;0.73;;
19788;SDS011;10054;59.332;18.244;2022-11-20T11:41:16;1.70;;;0.80;;
19788;SDS011;10054;59.332;18.244;2022-11-20T11:43:55;0.57;;;0.57;;
19788;SDS011;10054;59.332;18.244;2022-11-20T11:46:44;0.80;;;0.80;;
19788;SDS011;10054;59.332;18.244;2022-11-20T11:49:20;0.60;;;0.60;;
19788;SDS011;10054;59.332;18.244;2022-11-20T11:54:30;1.43;;;0.77;;
19788;SDS011;10054;59.332;18.244;2022-11-20T11:56:57;1.07;;;0.70;;
19788;SDS011;10054;59.332;18.244;2022-11-20T12:05:13;0.50;;;0.50;;
19788;SDS011;10054;59.332;18.244;2022-11-20T12:08:05;0.60;;;0.60;;
19788;SDS011;10054;59.332;18.244;2022-11-20T12:10:50;0.80;;;0.70;;
19788;SDS011;10054;59.332;18.244;2022-11-20T12:13:47;0.83;;;0.60;;
19788;SDS011;10054;59.332;18.244;2022-11-20T12:16:35;0.90;;;0.70;;
19788;SDS011;10054;59.332;18.244;2022-11-20T12:19:13;1.97;;;1.00;;
19788;SDS011;10054;59.332;18.244;2022-11-20T12:21:47;0.83;;;0.77;;
19788;SDS011;10054;59.332;18.244;2022-11-20T12:29:54;2.10;;;1.20;;
19788;SDS011;10054;59.332;18.244;2022-11-20T12:43:51;2.33;;;1.53;;
19788;SDS011;10054;59.332;18.244;2022-11-20T12:49:28;2.40;;;1.70;;
19788;SDS011;10054;59.332;18.244;2022-11-20T13:00:22;1.73;;;1.57;;
19788;SDS011;10054;59.332;18.244;2022-11-20T13:08:34;2.47;;;1.40;;
19788;SDS011;10054;59.332;18.244;2022-11-20T13:11:09;2.43;;;1.50;;
19788;SDS011;10054;59.332;18.244;2022-11-20T13:16:37;1.50;;;1.40;;
19788;SDS011;10054;59.332;18.244;2022-11-20T13:19:19;2.33;;;1.30;;
19788;SDS011;10054;59.332;18.244;2022-11-20T13:21:49;1.97;;;1.37;;
19788;SDS011;10054;59.332;18.244;2022-11-20T13:27:00;1.53;;;1.30;;
19788;SDS011;10054;59.332;18.244;2022-11-20T13:29:34;1.63;;;1.10;;
19788;SDS011;10054;59.332;18.244;2022-11-20T13:32:13;1.43;;;1.10;;
19788;SDS011;10054;59.332;18.244;2022-11-20T13:34:36;1.90;;;1.10;;
19788;SDS011;10054;59.332;18.244;2022-11-20T13:37:05;4.10;;;1.47;;
19788;SDS011;10054;59.332;18.244;2022-11-20T13:39:35;1.67;;;1.10;;
19788;SDS011;10054;59.332;18.244;2022-11-20T13:44:44;1.33;;;1.07;;
19788;SDS011;10054;59.332;18.244;2022-11-20T13:47:19;1.77;;;1.17;;
19788;SDS011;10054;59.332;18.244;2022-11-20T13:49:52;1.53;;;1.00;;
19788;SDS011;10054;59.332;18.244;2022-11-20T13:55:11;0.90;;;0.90;;
19788;SDS011;10054;59.332;18.244;2022-11-20T13:57:56;0.90;;;0.90;;
19788;SDS011;10054;59.332;18.244;2022-11-20T14:00:44;0.70;;;0.70;;
19788;SDS011;10054;59.332;18.244;2022-11-20T14:03:18;0.80;;;0.80;;
19788;SDS011;10054;59.332;18.244;2022-11-20T14:05:51;1.00;;;0.90;;
19788;SDS011;10054;59.332;18.244;2022-11-20T14:08:25;0.80;;;0.80;;
19788;SDS011;10054;59.332;18.244;2022-11-20T14:11:17;0.97;;;0.97;;
19788;SDS011;10054;59.332;18.244;2022-11-20T14:16:42;1.83;;;0.70;;
19788;SDS011;10054;59.332;18.244;2022-11-20T14:25:03;1.80;;;1.03;;
19788;SDS011;10054;59.332;18.244;2022-11-20T14:27:38;1.00;;;0.90;;
19788;SDS011;10054;59.332;18.244;2022-11-20T14:30:17;1.00;;;0.80;;
19788;SDS011;10054;59.332;18.244;2022-11-20T14:32:48;1.63;;;0.83;;
19788;SDS011;10054;59.332;18.244;2022-11-20T14:35:26;1.23;;;0.60;;
19788;SDS011;10054;59.332;18.244;2022-11-20T14:38:00;0.90;;;0.90;;
19788;SDS011;10054;59.332;18.244;2022-11-20T14:40:35;0.60;;;0.60;;
19788;SDS011;10054;59.332;18.244;2022-11-20T14:43:24;0.87;;;0.70;;
19788;SDS011;10054;59.332;18.244;2022-11-20T14:48:39;2.23;;;1.20;;
19788;SDS011;10054;59.332;18.244;2022-11-20T14:51:08;1.83;;;1.20;;
19788;SDS011;10054;59.332;18.244;2022-11-20T14:53:39;0.80;;;0.80;;
19788;SDS011;10054;59.332;18.244;2022-11-20T14:56:08;1.23;;;1.13;;
19788;SDS011;10054;59.332;18.244;2022-11-20T14:58:37;0.87;;;0.87;;
19788;SDS011;10054;59.332;18.244;2022-11-20T15:01:06;1.47;;;1.00;;
19788;SDS011;10054;59.332;18.244;2022-11-20T15:03:38;3.37;;;1.30;;
19788;SDS011;10054;59.332;18.244;2022-11-20T15:06:10;1.33;;;1.03;;
19788;SDS011;10054;59.332;18.244;2022-11-20T15:08:49;0.90;;;0.90;;
19788;SDS011;10054;59.332;18.244;2022-11-20T15:11:17;1.10;;;1.10;;
19788;SDS011;10054;59.332;18.244;2022-11-20T15:13:48;1.03;;;1.03;;
19788;SDS011;10054;59.332;18.244;2022-11-20T15:16:18;1.10;;;1.00;;
19788;SDS011;10054;59.332;18.244;2022-11-20T15:18:48;1.10;;;1.00;;
19788;SDS011;10054;59.332;18.244;2022-11-20T15:21:18;0.90;;;0.90;;
19788;SDS011;10054;59.332;18.244;2022-11-20T15:23:51;1.80;;;1.37;;
19788;SDS011;10054;59.332;18.244;2022-11-20T15:26:25;1.90;;;0.87;;
19788;SDS011;10054;59.332;18.244;2022-11-20T15:28:54;0.83;;;0.83;;
19788;SDS011;10054;59.332;18.244;2022-11-20T15:31:23;1.70;;;1.00;;
19788;SDS011;10054;59.332;18.244;2022-11-20T15:33:52;1.10;;;1.10;;
19788;SDS011;10054;59.332;18.244;2022-11-20T15:36:21;1.63;;;1.07;;
19788;SDS011;10054;59.332;18.244;2022-11-20T15:38:50;1.10;;;1.00;;
19788;SDS011;10054;59.332;18.244;2022-11-20T15:41:18;1.33;;;0.80;;
19788;SDS011;10054;59.332;18.244;2022-11-20T15:43:47;1.47;;;1.20;;
19788;SDS011;10054;59.332;18.244;2022-11-20T15:46:16;0.80;;;0.80;;
19788;SDS011;10054;59.332;18.244;2022-11-20T15:48:50;1.13;;;0.90;;
19788;SDS011;10054;59.332;18.244;2022-11-20T15:51:36;1.00;;;0.90;;
19788;SDS011;10054;59.332;18.244;2022-11-20T15:54:17;1.20;;;0.90;;
19788;SDS011;10054;59.332;18.244;2022-11-20T15:56:41;1.30;;;0.80;;
19788;SDS011;10054;59.332;18.244;2022-11-20T15:59:10;0.93;;;0.80;;
19788;SDS011;10054;59.332;18.244;2022-11-20T16:01:40;1.43;;;1.00;;
19788;SDS011;10054;59.332;18.244;2022-11-20T16:04:10;1.30;;;0.90;;
19788;SDS011;10054;59.332;18.244;2022-11-20T16:06:40;1.17;;;0.90;;
19788;SDS011;10054;59.332;18.244;2022-11-20T16:09:11;3.80;;;1.40;;
19788;SDS011;10054;59.332;18.244;2022-11-20T16:11:39;2.97;;;1.03;;
19788;SDS011;10054;59.332;18.244;2022-11-20T16:14:09;1.60;;;1.10;;
19788;SDS011;10054;59.332;18.244;2022-11-20T16:16:57;1.00;;;0.90;;
19788;SDS011;10054;59.332;18.244;2022-11-20T16:19:25;1.90;;;1.20;;
19788;SDS011;10054;59.332;18.244;2022-11-20T16:21:54;1.13;;;1.03;;
19788;SDS011;10054;59.332;18.244;2022-11-20T16:24:26;2.13;;;1.00;;
19788;SDS011;10054;59.332;18.244;2022-11-20T16:26:56;1.60;;;1.20;;
19788;SDS011;10054;59.332;18.244;2022-11-20T16:29:25;1.30;;;1.20;;
19788;SDS011;10054;59.332;18.244;2022-11-20T16:31:53;1.27;;;1.17;;
19788;SDS011;10054;59.332;18.244;2022-11-20T16:34:23;1.57;;;1.10;;
19788;SDS011;10054;59.332;18.244;2022-11-20T16:36:52;1.33;;;0.90;;
19788;SDS011;10054;59.332;18.244;2022-11-20T16:39:21;2.37;;;1.00;;
19788;SDS011;10054;59.332;18.244;2022-11-20T16:41:52;1.30;;;1.20;;
19788;SDS011;10054;59.332;18.244;2022-11-20T16:44:21;1.10;;;1.07;;
19788;SDS011;10054;59.332;18.244;2022-11-20T16:46:51;1.57;;;1.30;;